createdAt,value
2018-05-25T00:02:25.836Z,11.73
2018-05-25T00:04:51.699Z,11.30
2018-05-25T00:07:17.553Z,12.07
2018-05-25T00:09:43.417Z,10.70
2018-05-25T00:12:09.297Z,12.30
2018-05-25T00:14:35.187Z,9.47
2018-05-25T00:17:01.105Z,11.20
2018-05-25T00:19:26.959Z,11.67
2018-05-25T00:21:52.829Z,10.60
2018-05-25T00:24:18.690Z,11.30
2018-05-25T00:26:44.573Z,11.20
2018-05-25T00:29:10.416Z,10.80
2018-05-25T00:31:36.274Z,11.70
2018-05-25T00:34:02.129Z,11.57
2018-05-25T00:36:28.012Z,12.00
2018-05-25T00:38:53.880Z,11.73
2018-05-25T00:41:19.710Z,10.37
2018-05-25T00:43:45.586Z,11.63
2018-05-25T00:46:11.457Z,12.20
2018-05-25T00:48:37.334Z,11.37
2018-05-25T00:51:03.194Z,11.40
2018-05-25T00:53:29.074Z,11.13
2018-05-25T00:55:54.964Z,12.00
2018-05-25T00:58:20.821Z,11.90
2018-05-25T01:00:46.645Z,11.70
2018-05-25T01:03:12.520Z,10.50
2018-05-25T01:05:38.376Z,11.63
2018-05-25T01:08:04.258Z,10.20
2018-05-25T01:10:30.164Z,10.80
2018-05-25T01:12:56.016Z,11.57
2018-05-25T01:15:21.882Z,11.07
2018-05-25T01:17:47.726Z,10.03
2018-05-25T01:20:13.592Z,11.40
2018-05-25T01:22:39.474Z,9.83
2018-05-25T01:25:05.397Z,11.37
2018-05-25T01:27:31.288Z,10.30
2018-05-25T01:29:57.169Z,10.00
2018-05-25T01:32:23.006Z,10.67
2018-05-25T01:34:48.863Z,10.40
2018-05-25T01:37:14.744Z,10.37
2018-05-25T01:39:40.645Z,11.13
2018-05-25T01:42:06.477Z,10.13
2018-05-25T01:44:32.360Z,10.37
2018-05-25T01:46:58.241Z,11.43
2018-05-25T01:49:24.121Z,10.50
2018-05-25T01:51:49.993Z,10.83
2018-05-25T01:54:15.862Z,10.27
2018-05-25T01:56:41.761Z,10.13
2018-05-25T01:59:07.611Z,9.53
2018-05-25T02:01:33.477Z,11.00
2018-05-25T02:03:59.350Z,10.60
2018-05-25T02:06:25.230Z,10.13
2018-05-25T02:08:51.073Z,8.77
2018-05-25T02:11:17.018Z,9.90
2018-05-25T02:13:42.849Z,10.10
2018-05-25T02:16:08.729Z,10.13
2018-05-25T02:18:34.621Z,10.23
2018-05-25T02:21:00.469Z,9.97
2018-05-25T02:23:26.327Z,10.90
2018-05-25T02:25:52.169Z,12.07
2018-05-25T02:28:18.027Z,11.27
2018-05-25T02:30:43.903Z,10.90
2018-05-25T02:33:09.778Z,11.60
2018-05-25T02:35:35.649Z,11.80
2018-05-25T02:38:01.519Z,12.37
2018-05-25T02:40:27.364Z,10.93
2018-05-25T02:42:53.214Z,10.23
2018-05-25T02:45:19.088Z,9.53
2018-05-25T02:47:44.965Z,10.60
2018-05-25T02:50:10.837Z,10.03
2018-05-25T02:52:36.699Z,10.20
2018-05-25T02:55:02.636Z,11.37
2018-05-25T02:57:28.525Z,10.07
2018-05-25T02:59:54.381Z,10.17
2018-05-25T03:02:20.236Z,10.70
2018-05-25T03:04:46.105Z,10.20
2018-05-25T03:07:11.982Z,10.50
2018-05-25T03:09:37.867Z,10.97
2018-05-25T03:12:03.762Z,10.93
2018-05-25T03:14:29.615Z,10.07
2018-05-25T03:16:55.477Z,11.33
2018-05-25T03:19:21.333Z,8.50
2018-05-25T03:21:47.213Z,9.50
2018-05-25T03:24:13.067Z,11.00
2018-05-25T03:26:38.963Z,9.60
2018-05-25T03:29:04.829Z,11.17
2018-05-25T03:31:30.712Z,11.50
2018-05-25T03:33:56.588Z,11.30
2018-05-25T03:36:22.483Z,9.20
2018-05-25T03:38:48.329Z,9.93
2018-05-25T03:41:14.181Z,10.60
2018-05-25T03:43:40.023Z,10.43
2018-05-25T03:46:05.866Z,10.90
2018-05-25T03:48:31.709Z,9.83
2018-05-25T03:50:57.556Z,10.90
2018-05-25T03:53:23.389Z,9.43
2018-05-25T03:55:49.224Z,9.63
2018-05-25T03:58:15.089Z,9.90
2018-05-25T04:00:53.270Z,10.20
2018-05-25T04:03:19.138Z,10.30
2018-05-25T04:05:44.964Z,10.00
2018-05-25T04:08:10.808Z,8.47
2018-05-25T04:10:36.637Z,9.03
2018-05-25T04:13:02.513Z,9.47
2018-05-25T04:15:28.400Z,9.20
2018-05-25T04:17:54.236Z,9.40
2018-05-25T04:20:20.077Z,9.97
2018-05-25T04:22:45.924Z,9.83
2018-05-25T04:25:11.757Z,10.67
2018-05-25T04:27:37.604Z,10.10
2018-05-25T04:30:03.476Z,10.73
2018-05-25T04:32:29.310Z,11.00
2018-05-25T04:34:55.173Z,10.40
2018-05-25T04:37:21.020Z,9.67
2018-05-25T04:39:46.827Z,11.80
2018-05-25T04:42:12.652Z,11.37
2018-05-25T04:44:38.493Z,10.73
2018-05-25T04:47:04.329Z,12.27
2018-05-25T04:49:30.173Z,10.93
2018-05-25T04:51:56.037Z,11.67
2018-05-25T04:54:21.892Z,10.10
2018-05-25T04:56:47.728Z,11.60
2018-05-25T04:59:13.558Z,10.40
2018-05-25T05:01:39.416Z,11.83
2018-05-25T05:04:05.261Z,12.80
2018-05-25T05:06:31.134Z,12.70
2018-05-25T05:08:56.964Z,10.93
2018-05-25T05:11:22.809Z,10.13
2018-05-25T05:13:48.652Z,12.13
2018-05-25T05:16:14.497Z,12.30
2018-05-25T05:18:40.384Z,12.00
2018-05-25T05:21:06.237Z,11.77
2018-05-25T05:23:32.097Z,12.83
2018-05-25T05:25:57.922Z,12.17
2018-05-25T05:28:23.775Z,11.80
2018-05-25T05:30:49.598Z,11.47
2018-05-25T05:33:15.436Z,11.80
2018-05-25T05:35:41.281Z,10.93
2018-05-25T05:38:07.132Z,11.20
2018-05-25T05:40:32.965Z,12.27
2018-05-25T05:42:58.792Z,15.30
2018-05-25T05:45:24.690Z,13.97
2018-05-25T05:47:50.534Z,13.10
2018-05-25T05:50:16.373Z,11.93
2018-05-25T05:52:42.221Z,13.07
2018-05-25T05:55:08.050Z,14.53
2018-05-25T05:57:33.881Z,14.67
2018-05-25T05:59:59.725Z,14.33
2018-05-25T06:02:25.584Z,12.23
2018-05-25T06:04:51.434Z,12.73
2018-05-25T06:07:17.256Z,12.10
2018-05-25T06:09:43.132Z,11.30
2018-05-25T06:12:08.986Z,11.53
2018-05-25T06:14:34.811Z,13.50
2018-05-25T06:17:00.761Z,11.90
2018-05-25T06:19:26.612Z,11.97
2018-05-25T06:21:52.465Z,13.87
2018-05-25T06:24:18.282Z,12.93
2018-05-25T06:26:44.125Z,11.90
2018-05-25T06:29:09.956Z,10.90
2018-05-25T06:31:35.826Z,10.73
2018-05-25T06:34:01.642Z,10.30
2018-05-25T06:36:27.486Z,10.67
2018-05-25T06:38:53.304Z,11.63
2018-05-25T06:41:19.141Z,11.10
2018-05-25T06:43:45.000Z,11.17
2018-05-25T06:46:10.850Z,11.10
2018-05-25T06:48:36.701Z,10.50
2018-05-25T06:51:02.547Z,11.00
2018-05-25T06:53:28.377Z,10.90
2018-05-25T06:55:54.221Z,10.07
2018-05-25T06:58:20.069Z,11.57
2018-05-25T07:00:45.933Z,10.60
2018-05-25T07:03:11.791Z,12.37
2018-05-25T07:05:37.624Z,12.80
2018-05-25T07:08:03.482Z,10.23
2018-05-25T07:10:29.359Z,11.30
2018-05-25T07:12:55.209Z,10.23
2018-05-25T07:15:21.138Z,12.60
2018-05-25T07:17:46.988Z,10.20
2018-05-25T07:20:12.834Z,10.17
2018-05-25T07:22:38.667Z,9.67
2018-05-25T07:25:04.550Z,10.83
2018-05-25T07:27:30.386Z,9.20
2018-05-25T07:29:56.215Z,10.20
2018-05-25T07:32:22.057Z,10.60
2018-05-25T07:34:47.865Z,10.10
2018-05-25T07:37:20.461Z,9.43
2018-05-25T07:39:46.313Z,10.13
2018-05-25T07:42:12.204Z,11.17
2018-05-25T07:44:38.073Z,10.97
2018-05-25T07:47:03.916Z,11.17
2018-05-25T07:49:29.773Z,10.10
2018-05-25T07:51:55.624Z,10.10
2018-05-25T07:54:21.504Z,10.73
2018-05-25T07:56:47.376Z,9.80
2018-05-25T07:59:13.231Z,11.33
2018-05-25T08:01:39.051Z,9.87
2018-05-25T08:04:04.894Z,9.20
2018-05-25T08:06:30.738Z,8.10
2018-05-25T08:08:56.608Z,9.37
2018-05-25T08:11:22.477Z,8.20
2018-05-25T08:13:48.349Z,8.30
2018-05-25T08:16:14.225Z,10.47
2018-05-25T08:18:40.073Z,10.77
2018-05-25T08:21:05.899Z,9.00
2018-05-25T08:23:31.744Z,10.73
2018-05-25T08:25:57.567Z,9.30
2018-05-25T08:28:23.433Z,9.07
2018-05-25T08:30:49.262Z,9.87
2018-05-25T08:33:15.140Z,10.53
2018-05-25T08:35:40.996Z,8.73
2018-05-25T08:38:06.825Z,10.50
2018-05-25T08:40:32.663Z,10.20
2018-05-25T08:42:58.512Z,10.20
2018-05-25T08:45:24.381Z,10.53
2018-05-25T08:47:50.220Z,10.80
2018-05-25T08:50:16.067Z,11.07
2018-05-25T08:52:41.920Z,10.30
2018-05-25T08:55:07.811Z,10.20
2018-05-25T08:57:33.605Z,10.53
2018-05-25T08:59:59.469Z,10.30
2018-05-25T09:02:25.328Z,10.80
2018-05-25T09:04:51.391Z,9.40
2018-05-25T09:07:17.006Z,10.37
2018-05-25T09:09:42.881Z,10.47
2018-05-25T09:12:08.712Z,11.00
2018-05-25T09:14:34.543Z,11.40
2018-05-25T09:17:00.468Z,10.67
2018-05-25T09:19:26.321Z,10.30
2018-05-25T09:21:52.197Z,10.80
2018-05-25T09:24:18.024Z,9.13
2018-05-25T09:26:43.869Z,9.80
2018-05-25T09:29:09.705Z,10.53
2018-05-25T09:31:35.556Z,9.87
2018-05-25T09:34:01.388Z,10.87
2018-05-25T09:36:27.224Z,10.10
2018-05-25T09:38:53.053Z,9.47
2018-05-25T09:41:18.902Z,9.87
2018-05-25T09:43:44.748Z,9.50
2018-05-25T09:46:10.593Z,11.10
2018-05-25T09:48:36.421Z,10.70
2018-05-25T09:51:02.265Z,10.20
2018-05-25T09:53:28.128Z,8.50
2018-05-25T09:55:53.952Z,9.57
2018-05-25T09:58:19.795Z,8.57
2018-05-25T10:00:45.628Z,8.00
2018-05-25T10:03:11.508Z,8.00
2018-05-25T10:05:37.344Z,7.60
2018-05-25T10:08:03.209Z,8.90
2018-05-25T10:10:29.032Z,9.23
2018-05-25T10:12:54.876Z,8.37
2018-05-25T10:15:20.711Z,8.80
2018-05-25T10:17:46.549Z,9.00
2018-05-25T10:20:12.420Z,8.10
2018-05-25T10:22:38.249Z,7.40
2018-05-25T10:25:04.157Z,6.67
2018-05-25T10:27:30.004Z,7.00
2018-05-25T10:29:55.888Z,8.17
2018-05-25T10:32:21.769Z,7.23
2018-05-25T10:34:47.641Z,7.60
2018-05-25T10:37:13.480Z,8.20
2018-05-25T10:39:39.345Z,8.80
2018-05-25T10:42:05.172Z,9.07
2018-05-25T10:44:31.042Z,7.80
2018-05-25T10:46:56.847Z,9.80
2018-05-25T10:49:22.665Z,7.77
2018-05-25T10:51:48.535Z,8.27
2018-05-25T10:54:14.397Z,9.20
2018-05-25T10:56:40.236Z,8.60
2018-05-25T10:59:06.042Z,7.57
2018-05-25T11:01:31.904Z,7.80
2018-05-25T11:03:57.741Z,8.00
2018-05-25T11:06:23.608Z,7.43
2018-05-25T11:08:49.440Z,7.43
2018-05-25T11:11:15.269Z,8.13
2018-05-25T11:13:41.110Z,8.87
2018-05-25T11:16:07.022Z,8.00
2018-05-25T11:18:32.858Z,7.00
2018-05-25T11:20:58.741Z,7.80
2018-05-25T11:23:24.557Z,6.93
2018-05-25T11:25:50.393Z,7.20
2018-05-25T11:28:16.233Z,7.13
2018-05-25T11:30:42.053Z,5.67
2018-05-25T11:33:07.901Z,6.53
2018-05-25T11:35:33.730Z,6.10
2018-05-25T11:37:59.580Z,6.27
2018-05-25T11:40:25.432Z,6.20
2018-05-25T11:42:51.319Z,6.47
2018-05-25T11:45:17.174Z,5.30
2018-05-25T11:47:43.035Z,6.30
2018-05-25T11:50:08.881Z,5.37
2018-05-25T11:52:34.689Z,6.27
2018-05-25T11:55:00.579Z,5.30
2018-05-25T11:57:26.444Z,5.37
2018-05-25T11:59:52.289Z,5.13
2018-05-25T12:02:18.124Z,6.00
2018-05-25T12:04:43.953Z,5.10
2018-05-25T12:07:09.796Z,5.67
2018-05-25T12:09:35.701Z,5.50
2018-05-25T12:12:01.552Z,5.97
2018-05-25T12:14:27.377Z,6.20
2018-05-25T12:16:53.333Z,5.33
2018-05-25T12:19:19.201Z,5.93
2018-05-25T12:21:45.049Z,5.37
2018-05-25T12:24:10.901Z,6.53
2018-05-25T12:26:36.741Z,5.90
2018-05-25T12:29:02.597Z,5.27
2018-05-25T12:31:28.465Z,6.40
2018-05-25T12:33:54.326Z,5.50
2018-05-25T12:36:20.139Z,6.43
2018-05-25T12:38:46.022Z,6.57
2018-05-25T12:41:11.892Z,6.30
2018-05-25T12:43:37.733Z,6.70
2018-05-25T12:46:03.581Z,5.70
2018-05-25T12:48:29.417Z,5.63
2018-05-25T12:50:55.248Z,5.43
2018-05-25T12:53:21.099Z,5.30
2018-05-25T12:55:46.945Z,5.60
2018-05-25T12:58:12.784Z,6.30
2018-05-25T13:00:38.608Z,5.20
2018-05-25T13:03:04.448Z,5.80
2018-05-25T13:05:30.309Z,6.10
2018-05-25T13:07:56.184Z,6.03
2018-05-25T13:10:22.060Z,5.67
2018-05-25T13:12:47.912Z,6.80
2018-05-25T13:15:13.832Z,6.80
2018-05-25T13:17:39.681Z,7.33
2018-05-25T13:20:05.541Z,7.40
2018-05-25T13:22:31.386Z,6.80
2018-05-25T13:24:57.242Z,6.53
2018-05-25T13:27:23.085Z,6.50
2018-05-25T13:29:48.988Z,7.43
2018-05-25T13:32:14.826Z,7.00
2018-05-25T13:34:40.653Z,9.10
2018-05-25T13:37:06.513Z,6.50
2018-05-25T13:39:32.368Z,7.77
2018-05-25T13:41:58.223Z,8.60
2018-05-25T13:44:24.033Z,7.30
2018-05-25T13:46:49.885Z,8.37
2018-05-25T13:49:15.726Z,7.80
2018-05-25T13:51:41.580Z,8.90
2018-05-25T13:54:07.425Z,7.20
2018-05-25T13:56:33.271Z,7.47
2018-05-25T13:58:59.121Z,8.50
2018-05-25T14:01:24.981Z,8.07
2018-05-25T14:03:50.824Z,7.77
2018-05-25T14:06:16.705Z,7.87
2018-05-25T14:08:42.529Z,8.00
2018-05-25T14:11:08.381Z,7.87
2018-05-25T14:13:34.244Z,8.23
2018-05-25T14:16:00.177Z,8.73
2018-05-25T14:18:26.056Z,8.00
2018-05-25T14:20:51.873Z,7.50
2018-05-25T14:23:17.734Z,7.53
2018-05-25T14:25:43.591Z,7.93
2018-05-25T14:28:09.433Z,8.63
2018-05-25T14:30:35.292Z,7.50
2018-05-25T14:33:01.161Z,7.60
2018-05-25T14:35:27.017Z,7.57
2018-05-25T14:37:52.890Z,7.00
2018-05-25T14:40:18.753Z,6.70
2018-05-25T14:42:44.610Z,5.70
2018-05-25T14:45:10.480Z,5.63
2018-05-25T14:47:36.318Z,5.13
2018-05-25T14:50:02.194Z,6.00
2018-05-25T14:52:28.081Z,6.20
2018-05-25T14:54:53.947Z,5.97
2018-05-25T14:57:20.627Z,6.00
2018-05-25T14:59:46.513Z,5.07
2018-05-25T15:02:12.399Z,5.80
2018-05-25T15:04:38.225Z,5.27
2018-05-25T15:07:04.072Z,5.60
2018-05-25T15:09:29.944Z,5.23
2018-05-25T15:11:55.841Z,5.50
2018-05-25T15:14:21.636Z,5.93
2018-05-25T15:16:47.544Z,6.17
2018-05-25T15:19:13.436Z,5.97
2018-05-25T15:21:39.298Z,6.30
2018-05-25T15:24:05.335Z,6.30
2018-05-25T15:26:31.204Z,6.57
2018-05-25T15:28:57.538Z,5.60
2018-05-25T15:31:23.781Z,5.87
2018-05-25T15:33:50.028Z,7.23
2018-05-25T15:36:16.273Z,7.20
2018-05-25T15:38:42.403Z,6.47
2018-05-25T15:41:08.645Z,6.13
2018-05-25T15:43:34.906Z,5.77
2018-05-25T15:46:01.142Z,5.93
2018-05-25T15:48:27.409Z,6.57
2018-05-25T15:50:53.648Z,6.30
2018-05-25T15:53:20.997Z,6.93
2018-05-25T15:55:47.730Z,6.33
2018-05-25T15:58:13.993Z,6.37
2018-05-25T16:00:40.156Z,5.50
2018-05-25T16:03:06.752Z,5.00
2018-05-25T16:05:33.024Z,5.17
2018-05-25T16:07:59.293Z,5.43
2018-05-25T16:10:25.586Z,5.40
2018-05-25T16:12:51.727Z,5.00
2018-05-25T16:15:18.078Z,5.50
2018-05-25T16:17:44.327Z,6.00
2018-05-25T16:20:10.512Z,4.73
2018-05-25T16:22:36.714Z,5.93
2018-05-25T16:25:03.071Z,5.67
2018-05-25T16:27:29.508Z,4.67
2018-05-25T16:29:55.509Z,5.03
2018-05-25T16:32:21.945Z,5.40
2018-05-25T16:34:48.305Z,4.90
2018-05-25T16:37:14.568Z,5.40
2018-05-25T16:39:40.800Z,5.53
2018-05-25T16:42:07.889Z,6.23
2018-05-25T16:44:34.132Z,4.77
2018-05-25T16:47:00.659Z,5.30
2018-05-25T16:49:26.872Z,5.73
2018-05-25T16:51:53.147Z,5.97
2018-05-25T16:54:19.539Z,5.30
2018-05-25T16:56:46.160Z,5.33
2018-05-25T16:59:12.118Z,5.33
2018-05-25T17:01:38.211Z,5.27
2018-05-25T17:04:04.612Z,5.53
2018-05-25T17:06:30.904Z,5.80
2018-05-25T17:08:56.990Z,5.90
2018-05-25T17:11:23.218Z,5.17
2018-05-25T17:13:49.514Z,5.73
2018-05-25T17:16:15.856Z,5.70
2018-05-25T17:18:42.230Z,5.83
2018-05-25T17:21:08.508Z,5.80
2018-05-25T17:23:34.804Z,5.83
2018-05-25T17:26:01.374Z,4.80
2018-05-25T17:28:27.962Z,5.30
2018-05-25T17:30:54.621Z,4.73
2018-05-25T17:33:20.642Z,5.30
2018-05-25T17:35:46.584Z,5.40
2018-05-25T17:38:12.453Z,5.37
2018-05-25T17:40:38.296Z,5.40
2018-05-25T17:43:04.224Z,5.17
2018-05-25T17:45:30.089Z,6.13
2018-05-25T17:47:55.908Z,4.70
2018-05-25T17:50:21.781Z,5.40
2018-05-25T17:52:47.637Z,5.50
2018-05-25T17:55:13.546Z,5.47
2018-05-25T17:57:39.493Z,7.43
2018-05-25T18:00:05.390Z,6.57
2018-05-25T18:02:31.273Z,5.93
2018-05-25T18:04:57.124Z,6.13
2018-05-25T18:07:22.997Z,6.63
2018-05-25T18:09:48.874Z,5.53
2018-05-25T18:12:14.764Z,6.27
2018-05-25T18:14:40.623Z,5.63
2018-05-25T18:17:06.462Z,5.80
2018-05-25T18:19:32.337Z,6.10
2018-05-25T18:21:58.187Z,6.00
2018-05-25T18:24:24.083Z,5.77
2018-05-25T18:26:49.939Z,5.90
2018-05-25T18:29:15.805Z,6.50
2018-05-25T18:31:41.654Z,5.50
2018-05-25T18:34:07.513Z,5.90
2018-05-25T18:36:33.401Z,6.33
2018-05-25T18:38:59.286Z,7.33
2018-05-25T18:41:25.129Z,5.70
2018-05-25T18:43:51.011Z,6.30
2018-05-25T18:46:16.838Z,5.73
2018-05-25T18:48:42.665Z,6.00
2018-05-25T18:51:08.506Z,6.50
2018-05-25T18:53:34.377Z,6.30
2018-05-25T18:56:00.238Z,6.07
2018-05-25T18:58:26.141Z,6.03
2018-05-25T19:00:52.021Z,7.07
2018-05-25T19:03:17.880Z,8.00
2018-05-25T19:05:43.752Z,8.00
2018-05-25T19:08:09.628Z,8.07
2018-05-25T19:10:35.477Z,8.87
2018-05-25T19:13:01.327Z,9.53
2018-05-25T19:15:27.220Z,8.40
2018-05-25T19:17:53.084Z,9.97
2018-05-25T19:20:18.933Z,9.30
2018-05-25T19:22:44.770Z,7.40
2018-05-25T19:25:10.606Z,8.07
2018-05-25T19:27:36.476Z,8.23
2018-05-25T19:30:02.329Z,8.70
2018-05-25T19:32:28.242Z,8.00
2018-05-25T19:34:54.036Z,7.40
2018-05-25T19:37:19.878Z,7.80
2018-05-25T19:39:45.737Z,7.63
2018-05-25T19:42:11.588Z,7.70
2018-05-25T19:44:37.415Z,8.30
2018-05-25T19:47:03.254Z,7.57
2018-05-25T19:49:29.114Z,8.50
2018-05-25T19:51:54.980Z,7.20
2018-05-25T19:54:20.836Z,7.10
2018-05-25T19:56:46.700Z,7.47
2018-05-25T19:59:12.547Z,7.70
2018-05-25T20:01:38.400Z,8.00
2018-05-25T20:04:04.326Z,7.00
2018-05-25T20:06:30.150Z,7.40
2018-05-25T20:08:56.057Z,7.23
2018-05-25T20:11:21.905Z,8.13
2018-05-25T20:13:47.786Z,8.13
2018-05-25T20:16:13.819Z,7.50
2018-05-25T20:18:39.735Z,6.83
2018-05-25T20:21:12.521Z,8.17
2018-05-25T20:23:38.402Z,7.50
2018-05-25T20:26:04.250Z,9.73
2018-05-25T20:28:30.097Z,7.33
2018-05-25T20:30:55.978Z,7.77
2018-05-25T20:33:21.858Z,7.90
2018-05-25T20:35:47.750Z,7.27
2018-05-25T20:38:13.593Z,7.77
2018-05-25T20:40:39.501Z,7.10
2018-05-25T20:43:05.379Z,8.47
2018-05-25T20:45:31.260Z,8.50
2018-05-25T20:47:57.116Z,7.00
2018-05-25T20:50:22.990Z,8.13
2018-05-25T20:52:48.882Z,7.50
2018-05-25T20:55:14.774Z,7.30
2018-05-25T20:57:40.634Z,8.50
2018-05-25T21:00:06.525Z,9.07
2018-05-25T21:02:32.396Z,8.33
2018-05-25T21:04:58.306Z,9.00
2018-05-25T21:07:24.221Z,8.70
2018-05-25T21:09:50.135Z,8.53
2018-05-25T21:12:16.058Z,8.40
2018-05-25T21:14:41.896Z,7.77
2018-05-25T21:17:07.873Z,8.60
2018-05-25T21:19:33.741Z,9.97
2018-05-25T21:21:59.630Z,9.40
2018-05-25T21:24:25.521Z,8.63
2018-05-25T21:26:51.427Z,8.00
2018-05-25T21:29:17.290Z,9.10
2018-05-25T21:31:43.156Z,8.00
2018-05-25T21:34:09.019Z,8.77
2018-05-25T21:36:34.904Z,9.10
2018-05-25T21:39:00.778Z,8.93
2018-05-25T21:41:26.639Z,8.97
2018-05-25T21:43:52.554Z,8.50
2018-05-25T21:46:18.417Z,9.20
2018-05-25T21:48:44.314Z,10.20
2018-05-25T21:51:10.178Z,10.00
2018-05-25T21:53:36.062Z,9.30
2018-05-25T21:56:01.954Z,9.33
2018-05-25T21:58:27.841Z,9.10
2018-05-25T22:00:53.730Z,9.27
2018-05-25T22:03:19.578Z,8.70
2018-05-25T22:05:45.476Z,9.80
2018-05-25T22:08:11.391Z,10.17
2018-05-25T22:10:37.250Z,10.67
2018-05-25T22:13:03.102Z,11.10
2018-05-25T22:15:28.993Z,10.63
2018-05-25T22:17:54.857Z,10.23
2018-05-25T22:20:20.733Z,10.60
2018-05-25T22:22:46.615Z,9.13
2018-05-25T22:25:12.505Z,8.87
2018-05-25T22:27:38.369Z,9.53
2018-05-25T22:30:04.270Z,9.00
2018-05-25T22:32:30.161Z,9.40
2018-05-25T22:34:56.061Z,10.20
2018-05-25T22:37:21.965Z,10.20
2018-05-25T22:39:47.809Z,10.43
2018-05-25T22:42:26.038Z,11.43
2018-05-25T22:45:04.146Z,9.30
2018-05-25T22:47:42.303Z,9.60
2018-05-25T22:50:20.422Z,10.37
2018-05-25T22:52:52.175Z,10.07
2018-05-25T22:55:18.050Z,10.40
2018-05-25T22:57:43.894Z,10.43
2018-05-25T23:00:09.803Z,11.43
2018-05-25T23:02:35.661Z,9.50
2018-05-25T23:05:01.529Z,9.60
2018-05-25T23:07:27.400Z,10.00
2018-05-25T23:09:53.250Z,9.40
2018-05-25T23:12:19.109Z,9.20
2018-05-25T23:14:44.963Z,7.90
2018-05-25T23:17:10.912Z,8.73
2018-05-25T23:19:37.031Z,8.90
2018-05-25T23:22:02.920Z,9.00
2018-05-25T23:24:28.789Z,9.20
2018-05-25T23:26:54.662Z,9.63
2018-05-25T23:29:20.558Z,9.43
2018-05-25T23:31:46.422Z,8.63
2018-05-25T23:34:12.307Z,9.53
2018-05-25T23:36:38.156Z,9.47
2018-05-25T23:39:04.036Z,9.60
2018-05-25T23:41:29.905Z,10.30
2018-05-25T23:43:55.772Z,10.67
2018-05-25T23:46:21.614Z,9.80
2018-05-25T23:48:47.465Z,9.60
2018-05-25T23:51:13.317Z,9.83
2018-05-25T23:53:39.181Z,9.37
2018-05-25T23:56:05.078Z,10.37
2018-05-25T23:58:30.915Z,8.60
